createdAt,value
2018-02-27T00:00:00.576Z,-2.48
2018-02-27T00:05:02.836Z,-2.64
2018-02-27T00:10:04.346Z,-2.64
2018-02-27T00:15:05.939Z,-2.74
2018-02-27T00:20:07.311Z,-2.82
2018-02-27T00:25:08.792Z,-2.86
2018-02-27T00:30:10.199Z,-2.91
2018-02-27T00:35:11.680Z,-2.84
2018-02-27T00:40:13.200Z,-2.91
2018-02-27T00:45:14.547Z,-2.98
2018-02-27T00:50:16.086Z,-2.95
2018-02-27T00:55:17.556Z,-2.91
2018-02-27T01:00:19.003Z,-2.96
2018-02-27T01:05:21.173Z,-2.92
2018-02-27T01:10:22.700Z,-3.05
2018-02-27T01:15:24.902Z,-3.28
2018-02-27T01:20:26.380Z,-3.24
2018-02-27T01:25:27.912Z,-3.13
2018-02-27T01:30:30.174Z,-3.20
2018-02-27T01:35:31.478Z,-3.26
2018-02-27T01:40:33.019Z,-3.41
2018-02-27T01:45:34.546Z,-3.48
2018-02-27T01:50:36.083Z,-3.60
2018-02-27T01:55:38.411Z,-3.49
2018-02-27T02:00:39.889Z,-3.44
2018-02-27T02:05:42.172Z,-3.48
2018-02-27T02:10:43.702Z,-3.57
2018-02-27T02:15:45.970Z,-3.63
2018-02-27T02:20:47.433Z,-3.64
2018-02-27T02:25:48.936Z,-3.71
2018-02-27T02:30:50.460Z,-3.65
2018-02-27T02:35:52.001Z,-3.70
2018-02-27T02:40:53.499Z,-3.76
2018-02-27T02:45:54.999Z,-3.82
2018-02-27T02:50:56.454Z,-3.93
2018-02-27T02:55:58.726Z,-3.77
2018-02-27T03:01:00.184Z,-4.04
2018-02-27T03:06:01.736Z,-4.08
2018-02-27T03:11:03.047Z,-4.01
2018-02-27T03:16:05.345Z,-3.97
2018-02-27T03:21:06.927Z,-3.98
2018-02-27T03:26:08.461Z,-3.99
2018-02-27T03:31:09.997Z,-4.07
2018-02-27T03:36:11.493Z,-4.08
2018-02-27T03:41:13.069Z,-4.11
2018-02-27T03:46:14.565Z,-4.12
2018-02-27T03:51:16.060Z,-4.23
2018-02-27T03:56:17.450Z,-4.17
2018-02-27T04:01:18.975Z,-4.07
2018-02-27T04:06:20.538Z,-3.90
2018-02-27T04:11:21.909Z,-4.00
2018-02-27T04:16:23.454Z,-3.89
2018-02-27T04:21:31.819Z,-3.75
2018-02-27T04:26:33.403Z,-3.70
2018-02-27T04:31:34.954Z,-3.94
2018-02-27T04:36:36.492Z,-3.80
2018-02-27T04:41:38.263Z,-3.67
2018-02-27T04:46:40.368Z,-3.55
2018-02-27T04:51:41.943Z,-3.56
2018-02-27T04:56:43.507Z,-3.59
2018-02-27T05:01:45.683Z,-3.42
2018-02-27T05:06:47.187Z,-3.52
2018-02-27T05:11:48.679Z,-3.41
2018-02-27T05:16:50.176Z,-3.63
2018-02-27T05:21:51.690Z,-3.72
2018-02-27T05:26:53.425Z,-3.41
2018-02-27T05:31:54.804Z,-3.29
2018-02-27T05:36:56.313Z,-3.02
2018-02-27T05:42:04.873Z,-2.90
2018-02-27T05:47:06.454Z,-3.01
2018-02-27T05:52:07.791Z,-2.94
2018-02-27T05:57:09.394Z,-2.80
2018-02-27T06:02:10.746Z,-2.97
2018-02-27T06:07:12.285Z,-3.21
2018-02-27T06:12:13.826Z,-2.95
2018-02-27T06:17:15.346Z,-2.90
2018-02-27T06:22:16.876Z,-2.94
2018-02-27T06:27:18.404Z,-3.02
2018-02-27T06:32:19.921Z,-2.96
2018-02-27T06:37:21.506Z,-2.82
2018-02-27T06:47:25.262Z,-2.88
2018-02-27T06:52:27.575Z,-2.86
2018-02-27T06:57:28.941Z,-3.03
2018-02-27T07:02:30.511Z,-2.90
2018-02-27T07:07:32.074Z,-2.59
2018-02-27T07:12:34.353Z,-2.59
2018-02-27T07:17:35.866Z,-2.23
2018-02-27T07:22:38.172Z,-2.05
2018-02-27T07:27:39.725Z,-1.82
2018-02-27T07:32:41.332Z,-1.74
2018-02-27T07:37:42.860Z,-1.48
2018-02-27T07:42:44.411Z,-1.50
2018-02-27T07:47:45.971Z,-1.83
2018-02-27T07:52:47.548Z,-1.57
2018-02-27T07:57:49.861Z,-1.35
2018-02-27T08:02:52.201Z,-1.11
2018-02-27T08:07:53.726Z,-1.11
2018-02-27T08:12:55.276Z,-0.88
2018-02-27T08:17:56.816Z,-1.04
2018-02-27T08:22:58.380Z,-1.11
2018-02-27T08:27:59.893Z,-1.01
2018-02-27T08:33:01.425Z,-0.71
2018-02-27T08:38:02.980Z,-0.45
2018-02-27T08:43:04.479Z,-0.39
2018-02-27T08:48:06.040Z,-0.13
2018-02-27T08:53:07.653Z,0.47
2018-02-27T08:58:09.315Z,0.73
2018-02-27T09:03:10.867Z,0.76
2018-02-27T09:08:12.418Z,0.96
2018-02-27T09:13:13.954Z,1.02
2018-02-27T09:18:15.497Z,0.83
2018-02-27T09:23:17.755Z,1.03
2018-02-27T09:28:19.273Z,0.91
2018-02-27T09:33:20.665Z,0.66
2018-02-27T09:38:22.173Z,0.53
2018-02-27T09:43:23.631Z,0.76
2018-02-27T09:48:25.166Z,1.24
2018-02-27T09:53:27.444Z,1.79
2018-02-27T09:58:28.939Z,1.74
2018-02-27T10:03:30.487Z,1.65
2018-02-27T10:08:32.116Z,1.62
2018-02-27T10:13:33.636Z,1.36
2018-02-27T10:18:35.198Z,1.18
2018-02-27T10:23:36.753Z,0.51
2018-02-27T10:28:39.053Z,0.56
2018-02-27T10:33:41.367Z,0.61
2018-02-27T10:38:43.663Z,0.40
2018-02-27T10:43:45.214Z,0.88
2018-02-27T10:48:46.752Z,1.09
2018-02-27T10:53:48.101Z,1.46
2018-02-27T10:58:49.672Z,1.61
2018-02-27T11:03:51.199Z,2.07
2018-02-27T11:08:52.731Z,2.31
2018-02-27T11:13:54.282Z,1.36
2018-02-27T11:18:55.885Z,1.94
2018-02-27T11:23:57.444Z,1.91
2018-02-27T11:28:58.971Z,0.98
2018-02-27T11:34:00.524Z,1.09
2018-02-27T11:39:02.072Z,1.65
2018-02-27T11:44:03.579Z,2.58
2018-02-27T11:49:05.661Z,3.13
2018-02-27T11:54:07.310Z,3.31
2018-02-27T11:59:09.638Z,3.10
2018-02-27T12:04:11.139Z,3.19
2018-02-27T12:09:12.744Z,3.32
2018-02-27T12:14:14.336Z,3.84
2018-02-27T12:19:15.845Z,3.94
2018-02-27T12:24:17.179Z,3.79
2018-02-27T12:29:18.638Z,2.75
2018-02-27T12:34:20.072Z,2.72
2018-02-27T12:39:21.582Z,2.42
2018-02-27T12:44:23.101Z,2.54
2018-02-27T12:49:24.450Z,2.62
2018-02-27T12:54:26.747Z,2.92
2018-02-27T12:59:28.290Z,2.86
2018-02-27T13:04:29.648Z,3.44
2018-02-27T13:09:31.979Z,3.72
2018-02-27T13:14:33.543Z,3.31
2018-02-27T13:19:35.100Z,2.80
2018-02-27T13:24:36.672Z,2.96
2018-02-27T13:29:38.277Z,2.90
2018-02-27T13:34:39.833Z,3.43
2018-02-27T13:39:41.928Z,4.06
2018-02-27T13:44:44.121Z,4.20
2018-02-27T13:49:45.655Z,3.88
2018-02-27T13:54:47.945Z,3.01
2018-02-27T13:59:49.539Z,2.47
2018-02-27T14:04:51.809Z,1.83
2018-02-27T14:09:53.378Z,2.22
2018-02-27T14:14:54.907Z,2.05
2018-02-27T14:19:56.454Z,2.41
2018-02-27T14:24:58.767Z,2.14
2018-02-27T14:30:00.332Z,2.40
2018-02-27T14:35:01.847Z,2.54
2018-02-27T14:40:03.424Z,2.59
2018-02-27T14:45:04.968Z,2.76
2018-02-27T14:50:06.313Z,3.01
2018-02-27T14:55:08.634Z,3.15
2018-02-27T15:00:10.975Z,3.61
2018-02-27T15:05:12.565Z,3.92
2018-02-27T15:10:14.112Z,3.74
2018-02-27T15:15:15.667Z,3.64
2018-02-27T15:20:17.220Z,3.37
2018-02-27T15:25:18.965Z,2.85
2018-02-27T15:30:20.495Z,2.58
2018-02-27T15:35:22.020Z,2.27
2018-02-27T15:40:24.366Z,1.66
2018-02-27T15:45:26.937Z,1.42
2018-02-27T15:50:29.249Z,1.13
2018-02-27T15:55:30.836Z,1.43
2018-02-27T16:00:32.358Z,1.48
2018-02-27T16:05:33.910Z,1.18
2018-02-27T16:10:35.438Z,0.93
2018-02-27T16:15:37.520Z,0.87
2018-02-27T16:20:39.087Z,0.54
2018-02-27T16:25:40.738Z,0.60
2018-02-27T16:30:43.088Z,0.59
2018-02-27T16:35:44.710Z,0.33
2018-02-27T16:40:46.104Z,0.30
2018-02-27T16:45:47.756Z,0.39
2018-02-27T16:50:49.293Z,0.45
2018-02-27T16:55:50.903Z,0.59
2018-02-27T17:00:52.441Z,0.33
2018-02-27T17:05:53.913Z,0.16
2018-02-27T17:10:55.481Z,0.24
2018-02-27T17:15:56.837Z,0.26
2018-02-27T17:20:58.356Z,0.31
2018-02-27T17:25:59.946Z,0.13
2018-02-27T17:31:01.479Z,-0.03
2018-02-27T17:36:03.701Z,-0.04
2018-02-27T17:41:05.300Z,-0.09
2018-02-27T17:46:06.865Z,-0.18
2018-02-27T17:51:08.443Z,-0.23
2018-02-27T17:56:10.031Z,-0.64
2018-02-27T18:01:11.932Z,-0.72
2018-02-27T18:06:13.392Z,-0.52
2018-02-27T18:11:15.077Z,-0.64
2018-02-27T18:16:16.588Z,-0.67
2018-02-27T18:21:18.523Z,-0.51
2018-02-27T18:26:20.131Z,-0.56
2018-02-27T18:31:21.734Z,-0.63
2018-02-27T18:36:23.219Z,-0.60
2018-02-27T18:41:24.676Z,-0.88
2018-02-27T18:46:26.693Z,-0.78
2018-02-27T18:51:28.240Z,-0.96
2018-02-27T18:56:30.497Z,-0.86
2018-02-27T19:01:32.041Z,-1.16
2018-02-27T19:06:34.503Z,-1.03
2018-02-27T19:11:36.184Z,-0.99
2018-02-27T19:16:37.755Z,-0.95
2018-02-27T19:21:40.080Z,-1.06
2018-02-27T19:26:41.726Z,-0.95
2018-02-27T19:31:43.304Z,-1.17
2018-02-27T19:36:44.941Z,-1.31
2018-02-27T19:41:47.282Z,-1.13
2018-02-27T19:46:48.925Z,-1.23
2018-02-27T19:51:50.571Z,-1.57
2018-02-27T19:56:52.124Z,-1.52
2018-02-27T20:01:53.640Z,-1.56
2018-02-27T20:06:55.992Z,-1.68
2018-02-27T20:11:57.385Z,-1.35
2018-02-27T20:16:58.917Z,-1.57
2018-02-27T20:22:00.407Z,-1.53
2018-02-27T20:27:02.045Z,-1.47
2018-02-27T20:32:03.674Z,-1.57
2018-02-27T20:37:05.243Z,-1.79
2018-02-27T20:42:06.828Z,-1.61
2018-02-27T20:47:08.396Z,-1.89
2018-02-27T20:52:09.744Z,-2.00
2018-02-27T20:57:11.263Z,-1.98
2018-02-27T21:02:12.812Z,-2.26
2018-02-27T21:07:14.400Z,-2.13
2018-02-27T21:12:15.994Z,-2.31
2018-02-27T21:17:18.334Z,-1.94
2018-02-27T21:22:19.931Z,-2.10
2018-02-27T21:27:21.509Z,-2.14
2018-02-27T21:32:23.030Z,-2.21
2018-02-27T21:37:24.583Z,-2.18
2018-02-27T21:42:26.155Z,-2.11
2018-02-27T21:47:27.723Z,-2.34
2018-02-27T21:52:29.348Z,-2.42
2018-02-27T21:57:30.916Z,-2.50
2018-02-27T22:02:32.444Z,-2.46
2018-02-27T22:07:34.014Z,-2.50
2018-02-27T22:12:35.506Z,-2.54
2018-02-27T22:17:37.074Z,-2.57
2018-02-27T22:22:38.688Z,-2.56
2018-02-27T22:27:40.217Z,-2.89
2018-02-27T22:32:42.631Z,-2.61
2018-02-27T22:37:44.238Z,-2.50
2018-02-27T22:42:45.885Z,-2.47
2018-02-27T22:47:47.477Z,-2.55
2018-02-27T22:52:49.059Z,-2.49
2018-02-27T22:57:50.640Z,-2.58
2018-02-27T23:02:52.355Z,-2.65
2018-02-27T23:07:53.977Z,-2.54
2018-02-27T23:12:55.526Z,-2.69
2018-02-27T23:17:57.085Z,-2.63
2018-02-27T23:22:58.615Z,-2.72
2018-02-27T23:28:01.135Z,-2.63
2018-02-27T23:33:09.747Z,-2.73
2018-02-27T23:38:11.136Z,-2.74
2018-02-27T23:43:12.531Z,-2.67
2018-02-27T23:48:14.083Z,-2.68
2018-02-27T23:53:15.557Z,-2.51
2018-02-27T23:58:17.002Z,-2.40
